Time;durP1;ratioP1;P1;durP2;ratioP2;P2;SDS_P1;SDS_P2;PMS_P1;PMS_P2;Temp;Humidity;BMP_temperature;BMP_pressure;BME280_temperature;BME280_humidity;BME280_pressure;Samples;Min_cycle;Max_cycle;Signal;HPM_P1;HPM_P2
2022/11/29 00:01:04;;;;;;;9.50;6.60;;;8.50;99.90;;;;;;5052349;28;20456;-76
2022/11/29 00:03:30;;;;;;;8.80;6.13;;;8.50;99.90;;;;;;5052936;28;20453;-76
2022/11/29 00:05:55;;;;;;;12.73;7.03;;;8.50;99.90;;;;;;5053075;28;20401;-79
2022/11/29 00:08:22;;;;;;;9.57;6.17;;;8.60;99.90;;;;;;5035160;28;20428;-76
2022/11/29 00:10:48;;;;;;;10.57;5.60;;;8.60;99.90;;;;;;5053017;28;20178;-76
2022/11/29 00:13:13;;;;;;;11.40;7.00;;;8.60;99.90;;;;;;5052537;28;20822;-77
2022/11/29 00:15:39;;;;;;;11.93;7.10;;;8.60;99.90;;;;;;5034329;28;20640;-77
2022/11/29 00:18:06;;;;;;;11.00;7.70;;;8.60;99.90;;;;;;5052664;28;20177;-78
2022/11/29 00:20:32;;;;;;;9.13;6.80;;;8.60;99.90;;;;;;5035403;28;20460;-77
2022/11/29 00:22:58;;;;;;;13.60;6.63;;;8.70;99.90;;;;;;5034983;28;20426;-76
2022/11/29 00:25:24;;;;;;;9.60;7.10;;;8.70;99.90;;;;;;5034650;28;20496;-77
2022/11/29 00:27:50;;;;;;;13.93;8.43;;;8.80;99.90;;;;;;5053156;28;20263;-77
2022/11/29 00:30:17;;;;;;;16.37;10.50;;;8.80;99.90;;;;;;5036691;28;20441;-77
2022/11/29 00:32:42;;;;;;;23.13;10.90;;;8.90;99.90;;;;;;5051556;28;20218;-75
2022/11/29 00:35:08;;;;;;;18.40;10.93;;;8.80;99.90;;;;;;5051628;28;20436;-75
2022/11/29 00:37:34;;;;;;;15.00;8.70;;;8.90;99.90;;;;;;5052028;28;20568;-76
2022/11/29 00:39:59;;;;;;;17.33;8.70;;;8.80;99.90;;;;;;5052012;28;20163;-76
2022/11/29 00:42:25;;;;;;;18.30;9.93;;;8.90;99.90;;;;;;5051740;28;20189;-76
2022/11/29 00:44:51;;;;;;;13.00;7.97;;;8.90;99.90;;;;;;5051695;28;20166;-75
2022/11/29 00:47:16;;;;;;;12.90;9.27;;;8.90;99.90;;;;;;5053591;28;20408;-76
2022/11/29 00:49:42;;;;;;;11.47;7.63;;;8.90;99.90;;;;;;5053567;28;20163;-76
2022/11/29 00:52:07;;;;;;;19.83;8.50;;;9.00;99.90;;;;;;5053437;28;20733;-76
2022/11/29 00:54:33;;;;;;;8.90;7.70;;;9.00;99.90;;;;;;5052570;28;20663;-76
2022/11/29 00:56:58;;;;;;;10.73;7.17;;;9.00;99.90;;;;;;5035269;28;20182;-76
2022/11/29 00:59:24;;;;;;;14.60;8.07;;;9.00;99.90;;;;;;5035679;28;20179;-76
2022/11/29 01:01:50;;;;;;;15.10;9.40;;;9.00;99.90;;;;;;5039452;28;20652;-76
2022/11/29 01:04:16;;;;;;;12.97;7.87;;;9.00;99.90;;;;;;5057042;28;20163;-76
2022/11/29 01:06:41;;;;;;;16.20;8.17;;;9.00;99.90;;;;;;5057341;28;20163;-77
2022/11/29 01:09:07;;;;;;;14.53;7.90;;;9.10;99.90;;;;;;5057279;28;20527;-77
2022/11/29 01:11:33;;;;;;;19.90;9.77;;;9.10;99.90;;;;;;5039495;28;20171;-76
2022/11/29 01:14:00;;;;;;;12.47;7.60;;;9.10;99.90;;;;;;5039409;28;20693;-76
2022/11/29 01:16:27;;;;;;;13.27;8.23;;;9.10;99.90;;;;;;5038588;28;20175;-76
2022/11/29 01:18:53;;;;;;;16.43;8.63;;;9.10;99.90;;;;;;5057321;28;20413;-76
2022/11/29 01:21:21;;;;;;;15.23;8.07;;;9.10;99.90;;;;;;5056967;28;20531;-76
2022/11/29 01:23:48;;;;;;;18.97;8.57;;;9.10;99.90;;;;;;5038712;28;20190;-76
2022/11/29 01:26:16;;;;;;;16.77;8.73;;;9.10;99.90;;;;;;5055917;28;20401;-76
2022/11/29 01:28:44;;;;;;;21.30;8.47;;;9.10;99.90;;;;;;5056540;28;20401;-76
2022/11/29 01:31:18;;;;;;;19.93;9.37;;;9.10;99.90;;;;;;5056462;28;20428;-76
2022/11/29 01:33:44;;;;;;;19.53;9.30;;;9.10;99.90;;;;;;5038730;28;20429;-76
2022/11/29 01:36:12;;;;;;;15.73;8.67;;;9.20;99.90;;;;;;5037970;28;20441;-76
2022/11/29 01:38:38;;;;;;;20.47;9.77;;;9.20;99.90;;;;;;5038853;28;20221;-76
2022/11/29 01:41:26;;;;;;;23.10;7.97;;;9.20;99.90;;;;;;5056594;28;20457;-76
2022/11/29 01:44:10;;;;;;;18.63;8.40;;;9.20;99.90;;;;;;5056349;28;20672;-77
2022/11/29 01:46:41;;;;;;;26.27;9.50;;;9.10;99.90;;;;;;5056164;28;20431;-76
2022/11/29 01:49:14;;;;;;;13.63;10.37;;;9.10;99.90;;;;;;5056291;28;20389;-76
2022/11/29 01:51:43;;;;;;;11.87;7.47;;;9.20;99.90;;;;;;5038594;28;20416;-76
2022/11/29 01:54:10;;;;;;;15.93;8.77;;;9.20;99.90;;;;;;5038859;28;20405;-75
2022/11/29 01:56:37;;;;;;;14.27;8.80;;;9.20;99.90;;;;;;5055396;28;20401;-77
2022/11/29 01:59:07;;;;;;;14.13;7.80;;;9.30;99.90;;;;;;5055978;28;20486;-76
2022/11/29 02:01:34;;;;;;;16.37;8.77;;;9.20;99.90;;;;;;5056122;28;20457;-76
2022/11/29 02:04:00;;;;;;;15.33;8.00;;;9.20;99.90;;;;;;5056170;28;20416;-76
2022/11/29 02:06:28;;;;;;;19.20;8.70;;;9.20;99.90;;;;;;5055847;28;20550;-76
2022/11/29 02:08:53;;;;;;;10.70;8.70;;;9.20;99.90;;;;;;5056232;28;20163;-76
2022/11/29 02:11:49;;;;;;;30.33;10.70;;;9.20;99.90;;;;;;5055684;28;20415;-76
2022/11/29 02:14:26;;;;;;;13.60;9.13;;;9.30;99.90;;;;;;5037831;28;20198;-76
2022/11/29 02:17:14;;;;;;;21.30;9.13;;;9.30;99.90;;;;;;5055881;28;20405;-76
2022/11/29 02:20:16;;;;;;;22.03;9.90;;;9.30;99.90;;;;;;5056954;28;20401;-77
2022/11/29 02:23:09;;;;;;;12.77;8.53;;;9.40;99.90;;;;;;5055884;28;20425;-77
2022/11/29 02:25:53;;;;;;;15.60;8.50;;;9.40;99.90;;;;;;5055765;28;20451;-77
2022/11/29 02:28:50;;;;;;;15.17;8.70;;;9.40;99.90;;;;;;5037879;28;20401;-77
2022/11/29 02:31:35;;;;;;;14.63;8.30;;;9.40;99.90;;;;;;5055345;28;20518;-77
2022/11/29 02:34:12;;;;;;;10.90;8.00;;;9.50;99.90;;;;;;5055395;28;20435;-77
2022/11/29 02:37:02;;;;;;;13.90;7.40;;;9.50;99.90;;;;;;5055297;28;20501;-77
2022/11/29 02:40:07;;;;;;;18.07;7.50;;;9.50;99.90;;;;;;5055112;28;20417;-77
2022/11/29 02:42:59;;;;;;;35.47;10.53;;;9.60;99.90;;;;;;5037102;28;20445;-77
2022/11/29 02:45:58;;;;;;;10.47;8.50;;;9.60;99.90;;;;;;5037119;28;20937;-77
2022/11/29 02:48:36;;;;;;;12.93;8.67;;;9.60;99.90;;;;;;5037367;28;20466;-76
2022/11/29 02:51:17;;;;;;;13.40;8.23;;;9.60;99.90;;;;;;5055273;28;20397;-77
2022/11/29 02:53:56;;;;;;;24.03;10.40;;;9.60;99.90;;;;;;5036786;28;20513;-76
2022/11/29 02:56:33;;;;;;;17.80;9.90;;;9.60;99.90;;;;;;5036970;28;20393;-76
2022/11/29 02:59:15;;;;;;;17.00;9.60;;;9.60;99.90;;;;;;5054447;28;20397;-76
2022/11/29 03:01:55;;;;;;;22.13;9.10;;;9.60;99.90;;;;;;5054898;28;20479;-76
2022/11/29 03:04:35;;;;;;;14.90;9.77;;;9.50;99.90;;;;;;5054684;28;20484;-76
2022/11/29 03:07:14;;;;;;;17.73;8.60;;;9.50;99.90;;;;;;5036911;28;20405;-76
2022/11/29 03:10:01;;;;;;;17.27;9.00;;;9.50;99.90;;;;;;5054579;28;20405;-76
2022/11/29 03:12:39;;;;;;;17.90;8.93;;;9.50;99.90;;;;;;5036564;28;20429;-77
2022/11/29 03:15:46;;;;;;;24.63;10.10;;;9.50;99.90;;;;;;5054686;28;20413;-77
2022/11/29 03:18:43;;;;;;;20.03;10.97;;;9.40;99.90;;;;;;5042060;28;20417;-76
2022/11/29 03:21:23;;;;;;;21.40;10.30;;;9.40;99.90;;;;;;5055251;28;20476;-76
2022/11/29 03:23:57;;;;;;;18.27;10.20;;;9.40;99.90;;;;;;5037260;28;20432;-76
2022/11/29 03:26:41;;;;;;;24.60;12.20;;;9.40;99.90;;;;;;5037233;28;20555;-77
2022/11/29 03:29:21;;;;;;;20.27;11.47;;;9.40;99.90;;;;;;5055322;28;20785;-77
2022/11/29 03:31:54;;;;;;;24.20;12.57;;;9.40;99.90;;;;;;5055333;28;20906;-77
2022/11/29 03:34:35;;;;;;;24.50;11.67;;;9.40;99.90;;;;;;5036997;28;20424;-77
2022/11/29 03:37:13;;;;;;;26.70;13.20;;;9.40;99.90;;;;;;5055171;28;20424;-77
2022/11/29 03:39:53;;;;;;;25.00;12.33;;;9.40;99.90;;;;;;5055301;28;20406;-77
2022/11/29 03:42:29;;;;;;;25.40;13.57;;;9.40;99.90;;;;;;5054996;28;20445;-77
2022/11/29 03:45:13;;;;;;;34.90;14.43;;;9.40;99.90;;;;;;5037198;28;20570;-77
2022/11/29 03:48:02;;;;;;;26.93;13.90;;;9.40;99.90;;;;;;5055083;28;20431;-77
2022/11/29 03:50:36;;;;;;;24.07;13.77;;;9.40;99.90;;;;;;5055339;28;20505;-77
2022/11/29 03:53:22;;;;;;;28.73;13.43;;;9.40;99.90;;;;;;5054841;28;20500;-77
2022/11/29 03:56:26;;;;;;;27.20;14.20;;;9.40;99.90;;;;;;5054648;28;20409;-77
2022/11/29 03:59:23;;;;;;;30.00;15.60;;;9.40;99.90;;;;;;5050043;28;20421;-77
2022/11/29 04:01:55;;;;;;;40.47;17.83;;;9.30;99.90;;;;;;5055672;28;20452;-76
2022/11/29 04:04:23;;;;;;;37.47;16.53;;;9.40;99.90;;;;;;5037055;28;20440;-77
2022/11/29 04:07:22;;;;;;;32.80;17.10;;;9.30;99.90;;;;;;5055454;28;20410;-77
2022/11/29 04:10:15;;;;;;;42.00;18.93;;;9.30;99.90;;;;;;5054564;28;20401;-77
2022/11/29 04:13:02;;;;;;;41.70;17.90;;;9.30;99.90;;;;;;5037060;28;20524;-77
2022/11/29 04:15:53;;;;;;;43.50;20.20;;;9.40;99.90;;;;;;5037393;28;20471;-77
2022/11/29 04:18:46;;;;;;;39.67;19.43;;;9.40;99.90;;;;;;5037643;28;20513;-77
2022/11/29 04:21:42;;;;;;;31.17;18.43;;;9.30;99.90;;;;;;5036887;28;20973;-77
2022/11/29 04:24:44;;;;;;;49.70;20.20;;;9.40;99.90;;;;;;5054813;28;20397;-77
2022/11/29 04:27:35;;;;;;;42.63;19.37;;;9.40;99.90;;;;;;5054697;28;20454;-77
2022/11/29 04:30:23;;;;;;;40.30;19.67;;;9.40;99.90;;;;;;5054786;28;20488;-77
2022/11/29 04:33:26;;;;;;;47.37;17.53;;;9.50;99.90;;;;;;5054403;28;20426;-77
2022/11/29 04:36:19;;;;;;;37.83;19.73;;;9.50;99.90;;;;;;5052861;28;20401;-77
2022/11/29 04:38:59;;;;;;;37.60;17.80;;;9.40;99.90;;;;;;5036321;28;20846;-77
2022/11/29 04:41:38;;;;;;;44.60;19.90;;;9.40;99.90;;;;;;5036278;28;20461;-77
2022/11/29 04:44:21;;;;;;;37.20;19.97;;;9.40;99.90;;;;;;5035592;28;20974;-76
2022/11/29 04:47:09;;;;;;;34.00;17.53;;;9.50;99.90;;;;;;5036248;28;20423;-76
2022/11/29 04:49:38;;;;;;;44.03;18.60;;;9.40;99.90;;;;;;5036187;28;20456;-76
2022/11/29 04:52:19;;;;;;;36.00;20.03;;;9.40;99.90;;;;;;5053660;28;20451;-77
2022/11/29 04:55:11;;;;;;;38.07;18.60;;;9.50;99.90;;;;;;5054546;28;20412;-76
2022/11/29 04:57:56;;;;;;;41.13;19.80;;;9.40;99.90;;;;;;5036483;28;20405;-76
2022/11/29 05:00:23;;;;;;;38.17;17.67;;;9.50;99.90;;;;;;5054655;28;20435;-76
2022/11/29 05:02:57;;;;;;;45.70;18.63;;;9.50;99.90;;;;;;5055242;28;20504;-77
2022/11/29 05:05:38;;;;;;;47.37;19.67;;;9.50;99.90;;;;;;5054104;28;20435;-77
2022/11/29 05:08:37;;;;;;;45.53;18.43;;;9.60;99.90;;;;;;5036713;28;20419;-76
2022/11/29 05:11:18;;;;;;;51.87;20.80;;;9.50;99.90;;;;;;5054581;28;20769;-76
2022/11/29 05:14:21;;;;;;;50.73;19.37;;;9.60;99.90;;;;;;5053991;28;20421;-77
2022/11/29 05:16:57;;;;;;;58.47;18.80;;;9.50;99.90;;;;;;5036886;28;20413;-77
2022/11/29 05:19:34;;;;;;;43.03;19.37;;;9.50;99.90;;;;;;5055432;28;20840;-76
2022/11/29 05:22:31;;;;;;;41.27;18.40;;;9.50;99.90;;;;;;5036960;28;20500;-77
2022/11/29 05:25:13;;;;;;;53.03;20.20;;;9.50;99.90;;;;;;5037154;28;20409;-76
2022/11/29 05:27:50;;;;;;;36.00;17.00;;;9.60;99.90;;;;;;5054475;28;20475;-74
2022/11/29 05:30:21;;;;;;;31.50;18.30;;;9.50;99.90;;;;;;5051417;28;20811;-75
2022/11/29 05:33:20;;;;;;;45.30;19.67;;;9.60;99.90;;;;;;5051937;28;20868;-75
2022/11/29 05:35:52;;;;;;;41.40;22.40;;;9.60;99.90;;;;;;5052443;28;20400;-76
2022/11/29 05:38:48;;;;;;;48.33;19.07;;;9.60;99.90;;;;;;5037177;28;20405;-76
2022/11/29 05:41:39;;;;;;;52.03;20.70;;;9.50;99.90;;;;;;5054709;28;20449;-77
2022/11/29 05:44:07;;;;;;;53.57;18.10;;;9.50;99.90;;;;;;5051498;28;20436;-75
2022/11/29 05:46:45;;;;;;;51.57;19.97;;;9.50;99.90;;;;;;5052370;28;20408;-75
2022/11/29 05:49:32;;;;;;;49.47;19.50;;;9.50;99.90;;;;;;5055167;28;20397;-76
2022/11/29 05:52:11;;;;;;;51.07;21.93;;;9.40;99.90;;;;;;5055379;28;20397;-75
2022/11/29 05:54:42;;;;;;;63.13;22.10;;;9.40;99.90;;;;;;5054697;28;20405;-75
2022/11/29 05:57:29;;;;;;;40.57;20.57;;;9.40;99.90;;;;;;5037200;28;20405;-75
2022/11/29 05:59:56;;;;;;;54.53;21.53;;;9.50;99.90;;;;;;5055145;28;20797;-75
2022/11/29 06:02:24;;;;;;;57.77;18.70;;;9.40;99.90;;;;;;5055023;28;20460;-74
2022/11/29 06:05:02;;;;;;;55.30;20.17;;;9.40;99.90;;;;;;5055466;28;20817;-75
2022/11/29 06:08:00;;;;;;;52.10;20.33;;;9.50;99.90;;;;;;5056750;28;20397;-75
2022/11/29 06:10:31;;;;;;;55.43;21.47;;;9.40;99.90;;;;;;5054977;28;20402;-75
2022/11/29 06:13:12;;;;;;;48.77;20.10;;;9.40;99.90;;;;;;5055303;28;20420;-77
2022/11/29 06:16:10;;;;;;;56.27;19.07;;;9.40;99.90;;;;;;5054330;28;20392;-77
2022/11/29 06:18:43;;;;;;;61.97;20.67;;;9.40;99.90;;;;;;5000059;28;20443;-77
2022/11/29 06:21:33;;;;;;;63.43;22.47;;;9.40;99.90;;;;;;5054595;28;20487;-76
2022/11/29 06:24:27;;;;;;;59.23;20.70;;;9.40;99.90;;;;;;5036560;28;20453;-76
2022/11/29 06:27:05;;;;;;;49.73;17.53;;;9.40;99.90;;;;;;5054389;28;20907;-77
2022/11/29 06:29:56;;;;;;;62.43;20.57;;;9.40;99.90;;;;;;5054761;28;20402;-77
2022/11/29 06:32:30;;;;;;;48.10;20.43;;;9.40;99.90;;;;;;5037776;28;20460;-77
2022/11/29 06:35:06;;;;;;;51.00;20.33;;;9.40;99.90;;;;;;5055723;28;20377;-77
2022/11/29 06:37:42;;;;;;;48.40;20.73;;;9.30;99.90;;;;;;5054207;28;20397;-75
2022/11/29 06:40:10;;;;;;;60.87;21.07;;;9.30;99.90;;;;;;5036227;28;20776;-75
2022/11/29 06:42:36;;;;;;;51.20;18.30;;;9.40;99.90;;;;;;5054912;28;20444;-77
2022/11/29 06:45:02;;;;;;;48.37;20.27;;;9.30;99.90;;;;;;5055248;28;20509;-77
2022/11/29 06:47:59;;;;;;;47.50;21.63;;;9.30;99.90;;;;;;5055866;28;20285;-77
2022/11/29 06:50:39;;;;;;;52.77;21.17;;;9.20;99.90;;;;;;5055539;28;20400;-77
2022/11/29 06:53:23;;;;;;;53.60;22.27;;;9.30;99.90;;;;;;5054167;28;20420;-76
2022/11/29 06:55:48;;;;;;;54.27;20.83;;;9.30;99.90;;;;;;5053506;28;20451;-75
2022/11/29 06:58:43;;;;;;;46.23;17.93;;;9.30;99.90;;;;;;5052879;28;20401;-75
2022/11/29 07:01:21;;;;;;;54.20;17.90;;;9.30;99.90;;;;;;5053726;28;20195;-74
2022/11/29 07:04:05;;;;;;;43.13;18.60;;;9.40;99.90;;;;;;5053986;28;20482;-77
2022/11/29 07:06:32;;;;;;;48.30;20.70;;;9.30;99.90;;;;;;5054899;28;20448;-77
2022/11/29 07:09:03;;;;;;;55.57;19.30;;;9.30;99.90;;;;;;5057324;28;20449;-77
2022/11/29 07:11:29;;;;;;;46.67;18.97;;;9.40;99.90;;;;;;5053710;28;20424;-77
2022/11/29 07:13:54;;;;;;;49.53;19.33;;;9.40;99.90;;;;;;5053346;28;20422;-77
2022/11/29 07:16:29;;;;;;;57.10;19.90;;;9.40;99.90;;;;;;5035306;28;20640;-76
2022/11/29 07:19:24;;;;;;;45.40;20.47;;;9.50;99.90;;;;;;5053852;28;20159;-77
2022/11/29 07:22:02;;;;;;;39.17;17.30;;;9.40;99.90;;;;;;5053245;28;20452;-75
2022/11/29 07:24:46;;;;;;;46.47;19.43;;;9.50;99.90;;;;;;5053016;28;20425;-75
2022/11/29 07:27:33;;;;;;;56.90;19.50;;;9.50;99.90;;;;;;5035306;28;20416;-77
2022/11/29 07:30:16;;;;;;;57.83;19.50;;;9.50;99.90;;;;;;5053354;28;20899;-76
2022/11/29 07:33:15;;;;;;;64.03;20.33;;;9.60;99.90;;;;;;5052911;28;21202;-75
2022/11/29 07:35:41;;;;;;;57.67;20.40;;;9.60;99.90;;;;;;5052598;28;20450;-75
2022/11/29 07:38:28;;;;;;;51.40;20.77;;;9.50;99.90;;;;;;5053034;28;20907;-74
2022/11/29 07:41:26;;;;;;;55.00;21.80;;;9.60;99.90;;;;;;5053044;28;20194;-77
2022/11/29 07:43:57;;;;;;;56.60;20.17;;;9.60;99.90;;;;;;5035300;28;20425;-76
2022/11/29 07:46:24;;;;;;;65.70;24.63;;;9.50;99.90;;;;;;5035680;28;20413;-76
2022/11/29 07:48:50;;;;;;;59.33;19.20;;;9.50;99.90;;;;;;5054063;28;20406;-76
2022/11/29 07:51:15;;;;;;;48.83;19.17;;;9.50;99.90;;;;;;5053832;28;20414;-76
2022/11/29 07:53:43;;;;;;;59.47;20.47;;;9.50;99.90;;;;;;5053306;28;20432;-76
2022/11/29 07:56:08;;;;;;;49.27;21.60;;;9.40;99.90;;;;;;5034537;28;20261;-74
2022/11/29 07:58:35;;;;;;;50.23;18.17;;;9.40;99.90;;;;;;5052609;28;20501;-75
2022/11/29 08:01:01;;;;;;;53.27;20.83;;;9.50;99.90;;;;;;5052941;28;20574;-75
2022/11/29 08:03:27;;;;;;;48.67;20.67;;;9.50;99.90;;;;;;5052548;28;20479;-77
2022/11/29 08:05:52;;;;;;;53.97;20.87;;;9.50;99.90;;;;;;5034806;28;20797;-75
2022/11/29 08:08:17;;;;;;;68.73;21.30;;;9.50;99.90;;;;;;5034480;28;20543;-76
2022/11/29 08:10:43;;;;;;;59.07;20.43;;;9.50;99.90;;;;;;5052316;28;20205;-76
2022/11/29 08:13:09;;;;;;;54.40;21.63;;;9.50;99.90;;;;;;5034179;28;20221;-76
2022/11/29 08:15:34;;;;;;;62.40;22.27;;;9.50;99.90;;;;;;5052047;28;20706;-77
2022/11/29 08:18:02;;;;;;;56.67;19.83;;;9.50;99.90;;;;;;5052371;28;20171;-76
2022/11/29 08:20:27;;;;;;;45.83;19.67;;;9.60;99.90;;;;;;5052217;28;20190;-76
2022/11/29 08:22:57;;;;;;;53.50;20.97;;;9.60;99.90;;;;;;5052183;28;20429;-76
2022/11/29 08:25:25;;;;;;;47.50;19.27;;;9.60;99.90;;;;;;5051958;28;20643;-76
2022/11/29 08:27:51;;;;;;;64.87;21.50;;;9.60;99.90;;;;;;5052129;28;20797;-75
2022/11/29 08:30:22;;;;;;;52.90;20.13;;;9.70;99.90;;;;;;5051880;28;20496;-75
2022/11/29 08:32:49;;;;;;;51.20;18.33;;;9.70;99.90;;;;;;5034174;28;20561;-76
2022/11/29 08:35:16;;;;;;;58.37;18.80;;;9.80;99.90;;;;;;5033648;28;20401;-76
2022/11/29 08:37:41;;;;;;;48.43;18.40;;;9.70;99.90;;;;;;5052004;28;20397;-76
2022/11/29 08:40:07;;;;;;;55.17;17.93;;;9.70;99.90;;;;;;5051915;28;20447;-74
2022/11/29 08:42:33;;;;;;;40.43;16.87;;;9.70;99.90;;;;;;5051942;28;20234;-75
2022/11/29 08:44:58;;;;;;;58.30;21.80;;;9.70;99.90;;;;;;5052596;28;20748;-76
2022/11/29 08:47:36;;;;;;;52.33;20.70;;;9.70;99.90;;;;;;5054606;28;20170;-75
2022/11/29 08:50:16;;;;;;;47.40;18.73;;;9.80;99.90;;;;;;5033996;28;20182;-75
2022/11/29 08:55:35;;;;;;;66.00;19.83;;;9.80;99.90;;;;;;5052297;28;20463;-77
2022/11/29 08:58:03;;;;;;;61.73;23.40;;;9.70;99.90;;;;;;5035637;28;20918;-76
2022/11/29 09:00:30;;;;;;;53.47;17.43;;;9.60;99.90;;;;;;5033778;28;20417;-76
2022/11/29 09:03:58;;;;;;;52.73;18.43;;;9.70;99.90;;;;;;5051843;28;20802;-76
2022/11/29 09:05:41;;;;;;;42.50;17.07;;;9.70;99.90;;;;;;5052473;28;20409;-76
2022/11/29 09:08:07;;;;;;;51.47;17.40;;;9.70;99.90;;;;;;5052603;28;20928;-75
2022/11/29 09:10:32;;;;;;;57.73;20.43;;;9.80;99.90;;;;;;5051555;28;20206;-74
2022/11/29 09:12:58;;;;;;;44.03;18.97;;;9.80;99.90;;;;;;5052581;28;20673;-76
2022/11/29 09:15:23;;;;;;;50.83;17.47;;;9.80;99.90;;;;;;5051807;28;20167;-76
2022/11/29 09:17:49;;;;;;;44.67;19.70;;;9.90;99.90;;;;;;5034977;28;20684;-76
2022/11/29 09:20:14;;;;;;;47.77;21.07;;;9.90;99.90;;;;;;5052434;28;20163;-75
2022/11/29 09:22:40;;;;;;;45.00;16.80;;;9.90;99.90;;;;;;5036870;28;20322;-75
2022/11/29 09:25:05;;;;;;;54.10;18.43;;;9.90;99.90;;;;;;5055173;28;20174;-75
2022/11/29 09:27:31;;;;;;;51.27;19.77;;;10.00;99.90;;;;;;5056507;28;20178;-77
2022/11/29 09:29:56;;;;;;;51.07;20.73;;;10.00;99.90;;;;;;5038536;28;20167;-77
2022/11/29 09:32:22;;;;;;;43.33;16.20;;;10.00;99.90;;;;;;5056109;28;20264;-77
2022/11/29 09:34:48;;;;;;;65.07;19.00;;;10.00;99.90;;;;;;5055804;28;20171;-77
2022/11/29 09:37:13;;;;;;;55.67;20.60;;;10.00;99.90;;;;;;5037898;28;20177;-75
2022/11/29 09:39:40;;;;;;;38.77;15.10;;;10.10;99.90;;;;;;5055259;28;20619;-75
2022/11/29 09:42:26;;;;;;;35.57;16.07;;;10.20;99.90;;;;;;5054895;28;20691;-75
2022/11/29 09:45:00;;;;;;;45.03;16.50;;;10.20;99.90;;;;;;5055590;28;20412;-76
2022/11/29 09:48:03;;;;;;;39.23;16.57;;;10.40;99.90;;;;;;5056011;28;20403;-76
2022/11/29 09:50:32;;;;;;;39.17;17.27;;;10.50;99.90;;;;;;5037923;28;20412;-76
2022/11/29 09:53:26;;;;;;;45.90;16.80;;;10.60;99.90;;;;;;5038034;28;20751;-76
2022/11/29 09:56:04;;;;;;;35.30;15.10;;;10.70;99.90;;;;;;5055637;28;20393;-76
2022/11/29 09:58:56;;;;;;;33.27;16.03;;;10.80;99.90;;;;;;5055545;28;20442;-75
2022/11/29 10:01:33;;;;;;;32.37;14.90;;;10.80;99.90;;;;;;5043796;28;20463;-75
2022/11/29 10:04:09;;;;;;;35.30;16.67;;;11.00;99.90;;;;;;5055227;28;20490;-76
2022/11/29 10:06:39;;;;;;;41.30;15.50;;;11.00;99.90;;;;;;5056407;28;20397;-76
2022/11/29 10:09:21;;;;;;;31.80;16.50;;;11.10;99.90;;;;;;5055284;28;20394;-76
2022/11/29 10:12:00;;;;;;;26.77;13.20;;;11.10;99.90;;;;;;5037150;28;20499;-76
2022/11/29 10:14:35;;;;;;;31.30;14.67;;;11.30;99.90;;;;;;5054330;28;20983;-75
2022/11/29 10:17:37;;;;;;;31.73;14.67;;;11.20;99.90;;;;;;5054625;28;20428;-75
2022/11/29 10:20:15;;;;;;;32.60;13.93;;;11.40;99.90;;;;;;5054475;28;20743;-75
2022/11/29 10:22:53;;;;;;;30.10;14.33;;;11.60;99.90;;;;;;5054009;28;20449;-75
2022/11/29 10:25:48;;;;;;;27.23;13.23;;;11.70;99.90;;;;;;5054151;28;20409;-76
2022/11/29 10:28:16;;;;;;;29.73;14.43;;;11.60;99.90;;;;;;5054602;28;20397;-76
2022/11/29 10:30:42;;;;;;;24.80;13.90;;;11.50;99.90;;;;;;5054172;28;21116;-76
2022/11/29 10:33:38;;;;;;;25.27;12.90;;;11.60;99.90;;;;;;5034602;28;20568;-76
2022/11/29 10:36:20;;;;;;;30.00;13.90;;;11.40;99.90;;;;;;5051604;28;20423;-75
2022/11/29 10:38:47;;;;;;;30.20;13.97;;;11.30;99.90;;;;;;5054194;28;20838;-75
2022/11/29 10:41:19;;;;;;;30.87;13.40;;;11.40;99.90;;;;;;5054085;28;20481;-75
2022/11/29 10:43:46;;;;;;;28.20;13.83;;;11.20;99.90;;;;;;5036078;28;20433;-75
2022/11/29 10:46:24;;;;;;;28.10;13.80;;;11.20;99.90;;;;;;5053829;28;20763;-75
2022/11/29 10:48:52;;;;;;;30.23;13.23;;;11.30;99.90;;;;;;5053925;28;20513;-76
2022/11/29 10:51:17;;;;;;;39.67;14.30;;;11.30;99.90;;;;;;5053712;28;20745;-77
2022/11/29 10:53:45;;;;;;;40.07;14.07;;;11.30;99.90;;;;;;5053697;28;20433;-77
2022/11/29 10:56:28;;;;;;;36.70;15.10;;;11.20;99.90;;;;;;5053509;28;20165;-76
2022/11/29 10:59:03;;;;;;;30.33;14.70;;;11.30;99.90;;;;;;5053576;28;20410;-77
2022/11/29 11:01:35;;;;;;;35.07;15.37;;;11.30;99.90;;;;;;5054870;28;20508;-77
2022/11/29 11:04:03;;;;;;;24.60;14.37;;;11.40;99.90;;;;;;5054849;28;20490;-78
2022/11/29 11:06:43;;;;;;;34.80;15.30;;;11.50;99.90;;;;;;5054532;28;20932;-77
2022/11/29 11:09:15;;;;;;;31.13;15.00;;;11.60;99.90;;;;;;5036931;28;20930;-77
2022/11/29 11:11:53;;;;;;;22.53;14.10;;;11.80;99.90;;;;;;5036970;28;20416;-78
2022/11/29 11:14:25;;;;;;;32.27;14.23;;;11.90;99.90;;;;;;5054312;28;20405;-78
2022/11/29 11:16:52;;;;;;;26.23;14.27;;;11.90;99.90;;;;;;5054449;28;20401;-78
2022/11/29 11:19:30;;;;;;;28.13;14.17;;;12.00;99.90;;;;;;5036639;28;20783;-77
2022/11/29 11:22:01;;;;;;;23.30;11.83;;;12.00;99.90;;;;;;5035871;28;20831;-78
2022/11/29 11:24:36;;;;;;;35.10;16.93;;;12.00;99.90;;;;;;5035891;28;21119;-76
2022/11/29 11:27:02;;;;;;;33.80;14.60;;;11.90;99.90;;;;;;5035646;28;20408;-77
2022/11/29 11:29:39;;;;;;;30.37;14.50;;;12.00;99.90;;;;;;5053380;28;20530;-77
2022/11/29 11:32:15;;;;;;;32.93;16.27;;;12.20;99.90;;;;;;5053338;28;20718;-77
2022/11/29 11:34:50;;;;;;;29.87;15.07;;;12.30;99.90;;;;;;5053149;28;20412;-77
2022/11/29 11:37:23;;;;;;;30.00;15.37;;;12.40;99.90;;;;;;5053409;28;20458;-78
2022/11/29 11:39:52;;;;;;;38.90;16.27;;;12.30;99.90;;;;;;5035605;28;20420;-76
2022/11/29 11:42:38;;;;;;;32.87;16.00;;;12.30;99.90;;;;;;5035036;28;21005;-76
2022/11/29 11:45:24;;;;;;;41.90;15.43;;;12.20;99.90;;;;;;5034945;28;20406;-76
2022/11/29 11:47:53;;;;;;;37.30;16.63;;;12.20;99.90;;;;;;5034760;28;20456;-77
2022/11/29 11:50:35;;;;;;;31.43;13.87;;;12.20;99.90;;;;;;5053046;28;20451;-77
2022/11/29 11:53:16;;;;;;;28.77;15.13;;;12.10;99.90;;;;;;5052983;28;20429;-77
2022/11/29 11:55:44;;;;;;;32.67;16.33;;;12.00;99.90;;;;;;5052748;28;20402;-77
2022/11/29 11:58:13;;;;;;;28.87;16.27;;;11.80;99.90;;;;;;5052922;28;20401;-77
2022/11/29 12:01:10;;;;;;;31.27;14.73;;;11.80;99.90;;;;;;5052913;28;20938;-77
2022/11/29 12:03:48;;;;;;;30.83;16.67;;;11.70;99.90;;;;;;5053041;28;20432;-77
2022/11/29 12:06:52;;;;;;;32.73;14.87;;;11.60;99.90;;;;;;5052608;28;20400;-77
2022/11/29 12:09:31;;;;;;;38.23;15.00;;;11.50;99.90;;;;;;5052997;28;20425;-77
2022/11/29 12:12:09;;;;;;;44.83;15.87;;;11.30;99.90;;;;;;5052693;28;20405;-77
2022/11/29 12:14:53;;;;;;;27.90;14.87;;;11.20;99.90;;;;;;5052768;28;20946;-76
2022/11/29 12:17:40;;;;;;;35.97;15.20;;;11.20;99.90;;;;;;5052603;28;20492;-77
2022/11/29 12:20:16;;;;;;;34.03;15.77;;;11.10;99.90;;;;;;5034613;28;20409;-76
2022/11/29 12:22:50;;;;;;;31.97;17.80;;;10.90;99.90;;;;;;5052329;28;20452;-77
2022/11/29 12:25:25;;;;;;;33.50;17.20;;;10.90;99.90;;;;;;5052089;28;20488;-76
2022/11/29 12:27:52;;;;;;;33.90;18.17;;;10.90;99.90;;;;;;5052205;28;20926;-76
2022/11/29 12:30:18;;;;;;;41.23;19.47;;;11.00;99.90;;;;;;5052089;28;20488;-76
2022/11/29 12:32:52;;;;;;;36.07;16.17;;;10.90;99.90;;;;;;5052185;28;20248;-77
2022/11/29 12:35:55;;;;;;;38.40;15.00;;;10.90;99.90;;;;;;5052358;28;20400;-77
2022/11/29 12:39:00;;;;;;;39.40;18.10;;;10.70;99.90;;;;;;5034435;28;20428;-77
2022/11/29 12:41:25;;;;;;;41.30;14.30;;;10.70;99.90;;;;;;5034307;28;20784;-77
2022/11/29 12:44:10;;;;;;;46.50;15.53;;;10.70;99.90;;;;;;5052484;28;20630;-75
2022/11/29 12:46:37;;;;;;;28.73;15.00;;;10.70;99.90;;;;;;5052991;28;20186;-76
2022/11/29 12:49:21;;;;;;;39.33;17.17;;;10.70;99.90;;;;;;5052493;28;20464;-76
2022/11/29 12:52:12;;;;;;;37.67;16.90;;;10.60;99.90;;;;;;5034120;28;20440;-75
2022/11/29 12:54:48;;;;;;;35.40;15.90;;;10.70;99.90;;;;;;5052114;28;20416;-76
2022/11/29 12:57:26;;;;;;;30.37;16.10;;;10.70;99.90;;;;;;5051967;28;20548;-77
2022/11/29 13:00:12;;;;;;;31.90;16.43;;;10.70;99.90;;;;;;5052415;28;20401;-76
2022/11/29 13:02:38;;;;;;;32.03;16.27;;;10.70;99.90;;;;;;5034019;28;20472;-77
2022/11/29 13:05:25;;;;;;;32.87;16.73;;;10.70;99.90;;;;;;5033919;28;20411;-77
2022/11/29 13:08:04;;;;;;;31.90;16.20;;;10.70;99.90;;;;;;5051934;28;20186;-77
2022/11/29 13:10:44;;;;;;;47.87;16.97;;;10.70;99.90;;;;;;5052316;28;20783;-77
2022/11/29 13:13:18;;;;;;;40.30;17.63;;;10.70;99.90;;;;;;5052024;28;20413;-77
2022/11/29 13:15:49;;;;;;;36.37;15.57;;;10.70;99.90;;;;;;5033947;28;20412;-77
2022/11/29 13:18:36;;;;;;;30.00;15.77;;;10.70;99.90;;;;;;5034050;28;20417;-77
2022/11/29 13:21:19;;;;;;;39.03;15.97;;;10.80;99.90;;;;;;5051737;28;20461;-77
2022/11/29 13:23:58;;;;;;;32.80;17.77;;;10.80;99.90;;;;;;5051704;28;20926;-77
2022/11/29 13:26:25;;;;;;;32.07;16.10;;;10.80;99.90;;;;;;5051416;28;20425;-77